createdAt,value
2018-07-09T00:00:57.559Z,3.60
2018-07-09T00:06:00.574Z,3.20
2018-07-09T00:11:04.795Z,3.87
2018-07-09T00:16:07.795Z,3.70
2018-07-09T00:21:10.815Z,4.43
2018-07-09T00:26:13.796Z,3.93
2018-07-09T00:31:16.931Z,4.70
2018-07-09T00:36:20.280Z,4.10
2018-07-09T00:41:23.638Z,3.47
2018-07-09T00:46:26.665Z,4.20
2018-07-09T00:51:30.580Z,4.00
2018-07-09T00:56:33.649Z,3.53
2018-07-09T01:01:36.712Z,3.97
2018-07-09T01:06:39.716Z,4.17
2018-07-09T01:11:46.959Z,4.23
2018-07-09T01:16:49.959Z,3.80
2018-07-09T01:21:53.067Z,4.30
2018-07-09T01:26:56.077Z,4.90
2018-07-09T01:31:59.180Z,5.33
2018-07-09T01:37:02.183Z,4.70
2018-07-09T01:42:05.200Z,4.40
2018-07-09T01:47:08.292Z,4.37
2018-07-09T01:52:11.301Z,4.53
2018-07-09T01:57:14.304Z,4.27
2018-07-09T02:02:17.316Z,3.93
2018-07-09T02:07:20.489Z,4.37
2018-07-09T02:12:23.502Z,4.33
2018-07-09T02:17:26.481Z,4.30
2018-07-09T02:22:29.512Z,4.80
2018-07-09T02:27:32.503Z,5.10
2018-07-09T02:32:35.617Z,4.87
2018-07-09T02:37:38.624Z,4.87
2018-07-09T02:42:41.624Z,6.13
2018-07-09T02:47:44.884Z,5.50
2018-07-09T02:52:47.908Z,4.70
2018-07-09T02:57:50.911Z,5.20
2018-07-09T03:02:54.017Z,4.97
2018-07-09T03:07:57.020Z,5.23
2018-07-09T03:13:00.020Z,4.40
2018-07-09T03:18:03.048Z,5.57
2018-07-09T03:23:06.048Z,4.83
2018-07-09T03:28:09.039Z,4.87
2018-07-09T03:33:12.055Z,4.13
2018-07-09T03:38:15.069Z,4.53
2018-07-09T03:43:18.060Z,3.60
2018-07-09T03:48:21.059Z,4.57
2018-07-09T03:53:24.174Z,4.63
2018-07-09T03:58:27.176Z,4.60
2018-07-09T04:03:30.176Z,5.20
2018-07-09T04:08:33.201Z,4.40
2018-07-09T04:13:36.199Z,5.00
2018-07-09T04:18:39.187Z,4.73
2018-07-09T04:23:42.191Z,4.97
2018-07-09T04:28:45.186Z,5.23
2018-07-09T04:33:48.352Z,4.97
2018-07-09T04:38:51.344Z,3.80
2018-07-09T04:43:54.496Z,4.23
2018-07-09T04:48:57.477Z,4.00
2018-07-09T04:54:00.583Z,3.83
2018-07-09T04:59:03.591Z,3.50
2018-07-09T05:04:06.628Z,3.23
2018-07-09T05:09:09.715Z,3.57
2018-07-09T05:14:12.729Z,3.50
2018-07-09T05:19:15.831Z,4.33
2018-07-09T05:24:18.840Z,3.43
2018-07-09T05:29:21.860Z,2.90
2018-07-09T05:34:24.919Z,2.63
2018-07-09T05:39:27.924Z,3.13
2018-07-09T05:44:31.186Z,2.73
2018-07-09T05:49:34.570Z,2.60
2018-07-09T05:54:37.647Z,3.43
2018-07-09T05:59:40.643Z,3.00
2018-07-09T06:04:43.747Z,3.10
2018-07-09T06:09:46.930Z,2.83
2018-07-09T06:14:49.960Z,3.47
2018-07-09T06:19:52.974Z,3.07
2018-07-09T06:24:56.085Z,3.27
2018-07-09T06:29:59.107Z,2.43
2018-07-09T06:35:02.170Z,2.40
2018-07-09T06:40:05.172Z,2.83
2018-07-09T06:45:08.299Z,2.97
2018-07-09T06:50:11.308Z,2.50
2018-07-09T06:55:14.292Z,3.20
2018-07-09T07:00:17.316Z,2.80
2018-07-09T07:05:20.677Z,2.67
2018-07-09T07:10:24.202Z,2.70
2018-07-09T07:15:27.487Z,3.27
2018-07-09T07:20:30.588Z,3.40
2018-07-09T07:25:33.847Z,3.10
2018-07-09T07:30:39.177Z,2.70
2018-07-09T07:35:42.419Z,3.13
2018-07-09T07:40:45.427Z,3.10
2018-07-09T07:45:48.531Z,3.50
2018-07-09T07:50:51.528Z,4.10
2018-07-09T07:55:54.611Z,3.70
2018-07-09T08:00:57.617Z,3.10
2018-07-09T08:06:00.638Z,3.13
2018-07-09T08:11:11.068Z,3.00
2018-07-09T08:16:06.960Z,2.87
2018-07-09T08:21:11.151Z,3.17
2018-07-09T08:26:14.237Z,3.30
2018-07-09T08:31:17.255Z,3.10
2018-07-09T08:36:20.243Z,3.33
2018-07-09T08:41:23.284Z,3.40
2018-07-09T08:46:26.287Z,3.43
2018-07-09T08:51:29.320Z,2.87
2018-07-09T08:56:32.319Z,3.10
2018-07-09T09:01:35.351Z,2.50
2018-07-09T09:06:38.343Z,2.63
2018-07-09T09:11:41.411Z,2.30
2018-07-09T09:16:44.420Z,1.73
2018-07-09T09:21:47.414Z,1.73
2018-07-09T09:26:50.499Z,1.50
2018-07-09T09:31:53.521Z,2.37
2018-07-09T09:36:56.532Z,1.40
2018-07-09T09:41:59.562Z,1.70
2018-07-09T09:47:02.640Z,1.20
2018-07-09T09:52:05.646Z,1.33
2018-07-09T09:57:08.671Z,1.73
2018-07-09T10:02:11.757Z,1.77
2018-07-09T10:07:15.111Z,1.70
2018-07-09T10:12:18.113Z,1.63
2018-07-09T10:17:21.115Z,1.80
2018-07-09T10:22:24.137Z,1.93
2018-07-09T10:27:27.173Z,1.60
2018-07-09T10:32:30.209Z,1.90
2018-07-09T10:37:33.288Z,2.07
2018-07-09T10:42:36.295Z,2.10
2018-07-09T10:47:39.310Z,2.00
2018-07-09T10:52:42.317Z,2.30
2018-07-09T10:57:45.405Z,1.77
2018-07-09T11:02:48.491Z,1.90
2018-07-09T11:07:51.499Z,2.20
2018-07-09T11:12:54.535Z,2.20
2018-07-09T11:17:57.716Z,2.30
2018-07-09T11:23:00.827Z,2.00
2018-07-09T11:28:04.915Z,2.27
2018-07-09T11:33:07.951Z,1.60
2018-07-09T11:38:10.942Z,2.20
2018-07-09T11:43:13.959Z,2.00
2018-07-09T11:48:17.034Z,2.60
2018-07-09T11:53:20.067Z,2.20
2018-07-09T11:58:23.163Z,2.10
2018-07-09T12:03:26.272Z,2.27
2018-07-09T12:08:29.323Z,1.90
2018-07-09T12:13:32.339Z,2.00
2018-07-09T12:18:35.404Z,2.30
2018-07-09T12:23:38.397Z,2.20
2018-07-09T12:28:41.508Z,2.33
2018-07-09T12:33:44.605Z,2.80
2018-07-09T12:38:47.704Z,2.70
2018-07-09T12:43:50.729Z,2.63
2018-07-09T12:48:53.754Z,3.10
2018-07-09T12:53:57.035Z,3.40
2018-07-09T12:59:00.074Z,2.80
2018-07-09T13:04:03.070Z,3.20
2018-07-09T13:09:06.151Z,4.30
2018-07-09T13:14:09.540Z,2.90
2018-07-09T13:19:12.630Z,2.70
2018-07-09T13:24:15.641Z,3.20
2018-07-09T13:29:18.730Z,3.43
2018-07-09T13:34:21.763Z,3.10
2018-07-09T13:39:24.855Z,2.30
2018-07-09T13:44:27.923Z,2.63
2018-07-09T13:49:31.156Z,3.20
2018-07-09T13:54:34.336Z,2.50
2018-07-09T13:59:37.362Z,3.10
2018-07-09T14:04:40.479Z,2.50
2018-07-09T14:09:43.574Z,2.87
2018-07-09T14:14:46.680Z,2.30
2018-07-09T14:20:24.089Z,1.70
2018-07-09T14:25:27.094Z,1.97
2018-07-09T14:30:30.104Z,1.80
2018-07-09T14:35:33.096Z,2.30
2018-07-09T14:40:36.129Z,3.07
2018-07-09T14:45:39.131Z,2.50
2018-07-09T14:50:42.157Z,2.03
2018-07-09T14:55:45.148Z,2.53
2018-07-09T15:00:48.170Z,2.30
2018-07-09T15:05:51.171Z,2.30
2018-07-09T15:10:54.191Z,1.93
2018-07-09T15:15:57.191Z,2.03
2018-07-09T15:21:00.175Z,2.30
2018-07-09T15:26:03.155Z,2.70
2018-07-09T15:31:06.263Z,2.50
2018-07-09T15:36:09.312Z,2.00
2018-07-09T15:41:12.314Z,2.10
2018-07-09T15:46:15.324Z,2.50
2018-07-09T15:51:18.331Z,2.00
2018-07-09T15:56:21.348Z,1.70
2018-07-09T16:01:24.443Z,2.20
2018-07-09T16:06:27.448Z,2.50
2018-07-09T16:11:30.556Z,2.77
2018-07-09T16:16:33.581Z,2.23
2018-07-09T16:21:36.660Z,2.97
2018-07-09T16:26:39.676Z,2.40
2018-07-09T16:31:42.774Z,2.50
2018-07-09T16:36:46.303Z,2.70
2018-07-09T16:41:49.750Z,2.30
2018-07-09T16:46:52.835Z,3.10
2018-07-09T16:51:55.796Z,2.53
2018-07-09T16:56:58.810Z,2.60
2018-07-09T17:02:01.852Z,2.20
2018-07-09T17:07:05.010Z,2.27
2018-07-09T17:12:08.080Z,2.13
2018-07-09T17:17:11.133Z,2.60
2018-07-09T17:22:14.132Z,2.27
2018-07-09T17:27:17.174Z,1.73
2018-07-09T17:32:20.704Z,2.13
2018-07-09T17:37:23.737Z,2.37
2018-07-09T17:42:26.747Z,1.60
2018-07-09T17:47:29.763Z,1.27
2018-07-09T17:52:33.176Z,1.87
2018-07-09T17:57:37.090Z,1.47
2018-07-09T18:02:40.301Z,2.87
2018-07-09T18:07:43.476Z,1.67
2018-07-09T18:12:46.682Z,3.40
2018-07-09T18:17:49.915Z,2.20
2018-07-09T18:22:53.404Z,1.10
2018-07-09T18:27:56.853Z,2.83
2018-07-09T18:33:00.102Z,1.80
2018-07-09T18:38:03.076Z,1.90
2018-07-09T18:43:06.549Z,1.70
2018-07-09T18:48:09.660Z,1.70
2018-07-09T18:53:12.728Z,2.30
2018-07-09T18:58:15.819Z,1.63
2018-07-09T19:03:19.152Z,2.13
2018-07-09T19:08:22.305Z,1.40
2018-07-09T19:13:25.418Z,1.70
2018-07-09T19:18:40.106Z,1.60
2018-07-09T19:23:42.283Z,1.27
2018-07-09T19:28:44.579Z,1.90
2018-07-09T19:33:46.987Z,2.20
2018-07-09T19:38:49.159Z,1.63
2018-07-09T19:43:51.495Z,1.43
2018-07-09T19:48:53.813Z,2.00
2018-07-09T19:53:55.965Z,1.80
2018-07-09T19:58:58.117Z,2.20
2018-07-09T20:04:00.364Z,2.40
2018-07-09T20:10:10.876Z,1.73
2018-07-09T20:15:18.536Z,2.43
2018-07-09T20:20:20.728Z,1.67
2018-07-09T20:25:22.928Z,2.30
2018-07-09T20:30:25.070Z,2.00
2018-07-09T20:35:27.284Z,1.90
2018-07-09T20:40:29.517Z,1.50
2018-07-09T20:45:31.758Z,1.73
2018-07-09T20:50:33.906Z,1.53
2018-07-09T20:55:36.047Z,1.60
2018-07-09T21:00:38.254Z,1.20
2018-07-09T21:05:40.407Z,1.93
2018-07-09T21:10:43.355Z,1.50
2018-07-09T21:15:45.642Z,1.50
2018-07-09T21:20:47.845Z,1.40
2018-07-09T21:25:50.005Z,2.17
2018-07-09T21:30:52.185Z,1.90
2018-07-09T21:35:54.330Z,1.87
2018-07-09T21:40:56.537Z,1.87
2018-07-09T21:45:58.775Z,1.60
2018-07-09T21:51:00.959Z,2.10
2018-07-09T21:56:03.103Z,1.90
2018-07-09T22:01:05.267Z,2.00
2018-07-09T22:06:07.504Z,1.90
2018-07-09T22:11:09.672Z,2.23
2018-07-09T22:16:11.843Z,1.67
2018-07-09T22:21:14.021Z,2.33
2018-07-09T22:26:16.176Z,1.97
2018-07-09T22:31:19.088Z,1.70
2018-07-09T22:36:22.090Z,1.90
2018-07-09T22:41:25.119Z,1.67
2018-07-09T22:46:28.238Z,2.07
2018-07-09T22:51:31.233Z,1.83
2018-07-09T22:56:34.356Z,2.60
2018-07-09T23:01:37.348Z,1.97
2018-07-09T23:06:40.369Z,1.73
2018-07-09T23:13:20.540Z,1.67
2018-07-09T23:18:35.221Z,2.37
2018-07-09T23:23:37.407Z,2.10
2018-07-09T23:28:39.684Z,1.97
2018-07-09T23:33:41.837Z,2.20
2018-07-09T23:38:44.054Z,2.27
2018-07-09T23:43:46.220Z,1.97
2018-07-09T23:48:48.398Z,2.40
2018-07-09T23:53:50.700Z,1.60
2018-07-09T23:59:31.180Z,1.60
